sensor_id;sensor_type;location;lat;lon;timestamp;P1;durP1;ratioP1;P2;durP2;ratioP2
15293;SDS011;74171;52.534;13.436;2023-12-28T00:00:28;11.27;;;5.03;;
15293;SDS011;74171;52.534;13.436;2023-12-28T00:02:56;7.53;;;4.57;;
15293;SDS011;74171;52.534;13.436;2023-12-28T00:05:25;9.70;;;5.13;;
15293;SDS011;74171;52.534;13.436;2023-12-28T00:07:53;8.70;;;5.00;;
15293;SDS011;74171;52.534;13.436;2023-12-28T00:10:25;7.27;;;5.20;;
15293;SDS011;74171;52.534;13.436;2023-12-28T00:12:53;8.83;;;4.47;;
15293;SDS011;74171;52.534;13.436;2023-12-28T00:15:21;8.27;;;4.77;;
15293;SDS011;74171;52.534;13.436;2023-12-28T00:17:49;11.17;;;4.57;;
15293;SDS011;74171;52.534;13.436;2023-12-28T00:20:17;5.67;;;4.20;;
15293;SDS011;74171;52.534;13.436;2023-12-28T00:22:46;6.43;;;4.97;;
15293;SDS011;74171;52.534;13.436;2023-12-28T00:25:14;6.83;;;4.23;;
15293;SDS011;74171;52.534;13.436;2023-12-28T00:27:42;9.33;;;4.10;;
15293;SDS011;74171;52.534;13.436;2023-12-28T00:30:12;6.47;;;4.50;;
15293;SDS011;74171;52.534;13.436;2023-12-28T00:32:40;9.47;;;4.97;;
15293;SDS011;74171;52.534;13.436;2023-12-28T00:35:11;9.27;;;4.63;;
15293;SDS011;74171;52.534;13.436;2023-12-28T00:37:40;10.33;;;4.67;;
15293;SDS011;74171;52.534;13.436;2023-12-28T00:40:10;7.53;;;4.60;;
15293;SDS011;74171;52.534;13.436;2023-12-28T00:42:39;8.13;;;4.73;;
15293;SDS011;74171;52.534;13.436;2023-12-28T00:45:09;7.17;;;4.63;;
15293;SDS011;74171;52.534;13.436;2023-12-28T00:47:46;5.37;;;4.20;;
15293;SDS011;74171;52.534;13.436;2023-12-28T00:50:16;6.07;;;4.03;;
15293;SDS011;74171;52.534;13.436;2023-12-28T00:52:44;7.73;;;4.37;;
15293;SDS011;74171;52.534;13.436;2023-12-28T00:55:14;7.30;;;4.07;;
15293;SDS011;74171;52.534;13.436;2023-12-28T00:57:42;9.20;;;4.40;;
15293;SDS011;74171;52.534;13.436;2023-12-28T01:00:10;6.90;;;4.27;;
15293;SDS011;74171;52.534;13.436;2023-12-28T01:02:39;6.43;;;4.27;;
15293;SDS011;74171;52.534;13.436;2023-12-28T01:05:07;7.73;;;5.20;;
15293;SDS011;74171;52.534;13.436;2023-12-28T01:07:36;8.80;;;4.83;;
15293;SDS011;74171;52.534;13.436;2023-12-28T01:10:04;6.67;;;4.27;;
15293;SDS011;74171;52.534;13.436;2023-12-28T01:12:34;8.23;;;4.40;;
15293;SDS011;74171;52.534;13.436;2023-12-28T01:15:02;8.00;;;4.43;;
15293;SDS011;74171;52.534;13.436;2023-12-28T01:17:30;7.47;;;3.73;;
15293;SDS011;74171;52.534;13.436;2023-12-28T01:19:59;6.87;;;4.07;;
15293;SDS011;74171;52.534;13.436;2023-12-28T01:22:33;7.37;;;4.13;;
15293;SDS011;74171;52.534;13.436;2023-12-28T01:25:06;9.00;;;4.40;;
15293;SDS011;74171;52.534;13.436;2023-12-28T01:27:37;6.93;;;4.33;;
15293;SDS011;74171;52.534;13.436;2023-12-28T01:30:06;7.67;;;4.30;;
15293;SDS011;74171;52.534;13.436;2023-12-28T01:32:34;9.47;;;4.53;;
15293;SDS011;74171;52.534;13.436;2023-12-28T01:35:04;6.37;;;4.33;;
15293;SDS011;74171;52.534;13.436;2023-12-28T01:37:33;9.03;;;4.30;;
15293;SDS011;74171;52.534;13.436;2023-12-28T01:40:02;7.13;;;4.30;;
15293;SDS011;74171;52.534;13.436;2023-12-28T01:42:33;9.70;;;4.37;;
15293;SDS011;74171;52.534;13.436;2023-12-28T01:45:04;8.57;;;4.30;;
15293;SDS011;74171;52.534;13.436;2023-12-28T01:47:32;7.67;;;3.73;;
15293;SDS011;74171;52.534;13.436;2023-12-28T01:50:01;6.13;;;3.73;;
15293;SDS011;74171;52.534;13.436;2023-12-28T01:52:30;5.67;;;3.73;;
15293;SDS011;74171;52.534;13.436;2023-12-28T01:54:57;8.90;;;4.07;;
15293;SDS011;74171;52.534;13.436;2023-12-28T01:57:27;5.60;;;3.90;;
15293;SDS011;74171;52.534;13.436;2023-12-28T01:59:55;7.53;;;3.80;;
15293;SDS011;74171;52.534;13.436;2023-12-28T02:02:26;6.50;;;3.63;;
15293;SDS011;74171;52.534;13.436;2023-12-28T02:04:55;4.70;;;3.60;;
15293;SDS011;74171;52.534;13.436;2023-12-28T02:07:24;5.40;;;3.97;;
15293;SDS011;74171;52.534;13.436;2023-12-28T02:09:52;3.93;;;3.30;;
15293;SDS011;74171;52.534;13.436;2023-12-28T02:12:21;4.90;;;3.60;;
15293;SDS011;74171;52.534;13.436;2023-12-28T02:14:49;6.33;;;3.73;;
15293;SDS011;74171;52.534;13.436;2023-12-28T02:17:19;5.17;;;3.70;;
15293;SDS011;74171;52.534;13.436;2023-12-28T02:19:52;6.53;;;3.60;;
15293;SDS011;74171;52.534;13.436;2023-12-28T02:22:21;4.37;;;3.10;;
15293;SDS011;74171;52.534;13.436;2023-12-28T02:27:40;3.07;;;2.73;;
15293;SDS011;74171;52.534;13.436;2023-12-28T02:30:09;5.37;;;3.37;;
15293;SDS011;74171;52.534;13.436;2023-12-28T02:32:40;3.10;;;2.70;;
15293;SDS011;74171;52.534;13.436;2023-12-28T02:35:17;4.53;;;2.73;;
15293;SDS011;74171;52.534;13.436;2023-12-28T02:37:50;3.10;;;2.80;;
15293;SDS011;74171;52.534;13.436;2023-12-28T02:40:20;5.90;;;4.10;;
15293;SDS011;74171;52.534;13.436;2023-12-28T02:42:50;4.63;;;3.50;;
15293;SDS011;74171;52.534;13.436;2023-12-28T02:45:20;4.03;;;2.37;;
15293;SDS011;74171;52.534;13.436;2023-12-28T02:47:49;6.23;;;3.43;;
15293;SDS011;74171;52.534;13.436;2023-12-28T02:50:17;5.20;;;3.40;;
15293;SDS011;74171;52.534;13.436;2023-12-28T02:52:45;3.73;;;2.27;;
15293;SDS011;74171;52.534;13.436;2023-12-28T02:55:13;5.03;;;2.87;;
15293;SDS011;74171;52.534;13.436;2023-12-28T02:57:46;3.97;;;2.30;;
15293;SDS011;74171;52.534;13.436;2023-12-28T03:00:16;5.13;;;3.17;;
15293;SDS011;74171;52.534;13.436;2023-12-28T03:02:44;6.77;;;3.03;;
15293;SDS011;74171;52.534;13.436;2023-12-28T03:05:12;3.73;;;2.70;;
15293;SDS011;74171;52.534;13.436;2023-12-28T03:07:42;5.17;;;3.20;;
15293;SDS011;74171;52.534;13.436;2023-12-28T03:10:10;6.07;;;3.00;;
15293;SDS011;74171;52.534;13.436;2023-12-28T03:12:42;4.47;;;3.10;;
15293;SDS011;74171;52.534;13.436;2023-12-28T03:15:11;6.30;;;3.07;;
15293;SDS011;74171;52.534;13.436;2023-12-28T03:17:41;5.77;;;3.07;;
15293;SDS011;74171;52.534;13.436;2023-12-28T03:20:10;3.80;;;2.90;;
15293;SDS011;74171;52.534;13.436;2023-12-28T03:22:38;12.07;;;4.60;;
15293;SDS011;74171;52.534;13.436;2023-12-28T03:25:08;7.00;;;2.97;;
15293;SDS011;74171;52.534;13.436;2023-12-28T03:27:36;9.70;;;4.17;;
15293;SDS011;74171;52.534;13.436;2023-12-28T03:30:06;8.77;;;3.17;;
15293;SDS011;74171;52.534;13.436;2023-12-28T03:32:37;4.93;;;2.63;;
15293;SDS011;74171;52.534;13.436;2023-12-28T03:35:07;6.73;;;3.00;;
15293;SDS011;74171;52.534;13.436;2023-12-28T03:37:35;5.47;;;3.20;;
15293;SDS011;74171;52.534;13.436;2023-12-28T03:40:04;5.97;;;3.10;;
15293;SDS011;74171;52.534;13.436;2023-12-28T03:42:32;4.00;;;2.50;;
15293;SDS011;74171;52.534;13.436;2023-12-28T03:45:01;3.93;;;2.40;;
15293;SDS011;74171;52.534;13.436;2023-12-28T03:47:29;5.23;;;2.53;;
15293;SDS011;74171;52.534;13.436;2023-12-28T03:49:57;4.07;;;2.70;;
15293;SDS011;74171;52.534;13.436;2023-12-28T03:52:35;2.57;;;1.80;;
15293;SDS011;74171;52.534;13.436;2023-12-28T03:55:03;2.43;;;2.10;;
15293;SDS011;74171;52.534;13.436;2023-12-28T03:57:32;3.07;;;2.20;;
15293;SDS011;74171;52.534;13.436;2023-12-28T03:59:59;2.97;;;2.27;;
15293;SDS011;74171;52.534;13.436;2023-12-28T04:02:27;2.73;;;2.03;;
15293;SDS011;74171;52.534;13.436;2023-12-28T04:04:57;2.13;;;1.93;;
15293;SDS011;74171;52.534;13.436;2023-12-28T04:07:26;3.23;;;2.10;;
15293;SDS011;74171;52.534;13.436;2023-12-28T04:09:55;2.20;;;1.93;;
15293;SDS011;74171;52.534;13.436;2023-12-28T04:12:25;2.60;;;2.00;;
15293;SDS011;74171;52.534;13.436;2023-12-28T04:14:54;2.00;;;1.80;;
15293;SDS011;74171;52.534;13.436;2023-12-28T04:17:22;2.40;;;2.03;;
15293;SDS011;74171;52.534;13.436;2023-12-28T04:19:50;3.23;;;2.07;;
15293;SDS011;74171;52.534;13.436;2023-12-28T04:22:18;6.20;;;2.10;;
15293;SDS011;74171;52.534;13.436;2023-12-28T04:24:46;2.13;;;1.70;;
15293;SDS011;74171;52.534;13.436;2023-12-28T04:27:16;3.20;;;2.13;;
15293;SDS011;74171;52.534;13.436;2023-12-28T04:29:43;3.70;;;2.17;;
15293;SDS011;74171;52.534;13.436;2023-12-28T04:32:15;2.57;;;2.00;;
15293;SDS011;74171;52.534;13.436;2023-12-28T04:34:43;2.10;;;1.90;;
15293;SDS011;74171;52.534;13.436;2023-12-28T04:37:11;2.57;;;2.10;;
15293;SDS011;74171;52.534;13.436;2023-12-28T04:39:39;2.90;;;1.83;;
15293;SDS011;74171;52.534;13.436;2023-12-28T04:42:08;2.50;;;2.10;;
15293;SDS011;74171;52.534;13.436;2023-12-28T04:44:41;2.53;;;1.90;;
15293;SDS011;74171;52.534;13.436;2023-12-28T04:47:10;3.27;;;2.00;;
15293;SDS011;74171;52.534;13.436;2023-12-28T04:49:38;2.27;;;2.07;;
15293;SDS011;74171;52.534;13.436;2023-12-28T04:52:07;2.37;;;1.90;;
15293;SDS011;74171;52.534;13.436;2023-12-28T04:54:35;4.47;;;2.10;;
15293;SDS011;74171;52.534;13.436;2023-12-28T04:57:03;2.97;;;2.00;;
15293;SDS011;74171;52.534;13.436;2023-12-28T04:59:31;4.10;;;2.17;;
15293;SDS011;74171;52.534;13.436;2023-12-28T05:02:00;3.20;;;1.87;;
15293;SDS011;74171;52.534;13.436;2023-12-28T05:04:28;2.10;;;1.90;;
15293;SDS011;74171;52.534;13.436;2023-12-28T05:06:57;2.23;;;1.90;;
15293;SDS011;74171;52.534;13.436;2023-12-28T05:09:25;2.30;;;1.80;;
15293;SDS011;74171;52.534;13.436;2023-12-28T05:11:54;2.63;;;2.00;;
15293;SDS011;74171;52.534;13.436;2023-12-28T05:14:21;1.73;;;1.63;;
15293;SDS011;74171;52.534;13.436;2023-12-28T05:16:49;3.73;;;2.00;;
15293;SDS011;74171;52.534;13.436;2023-12-28T05:19:19;4.13;;;1.83;;
15293;SDS011;74171;52.534;13.436;2023-12-28T05:21:47;1.80;;;1.67;;
15293;SDS011;74171;52.534;13.436;2023-12-28T05:24:15;6.23;;;2.07;;
15293;SDS011;74171;52.534;13.436;2023-12-28T05:26:43;2.17;;;1.87;;
15293;SDS011;74171;52.534;13.436;2023-12-28T05:29:11;2.33;;;1.73;;
15293;SDS011;74171;52.534;13.436;2023-12-28T05:31:40;2.80;;;1.97;;
15293;SDS011;74171;52.534;13.436;2023-12-28T05:34:08;2.43;;;2.17;;
15293;SDS011;74171;52.534;13.436;2023-12-28T05:36:40;2.57;;;2.00;;
15293;SDS011;74171;52.534;13.436;2023-12-28T05:39:08;3.60;;;2.10;;
15293;SDS011;74171;52.534;13.436;2023-12-28T05:41:39;3.53;;;2.10;;
15293;SDS011;74171;52.534;13.436;2023-12-28T05:44:08;4.50;;;2.03;;
15293;SDS011;74171;52.534;13.436;2023-12-28T05:46:36;1.80;;;1.70;;
15293;SDS011;74171;52.534;13.436;2023-12-28T05:49:04;2.60;;;1.80;;
15293;SDS011;74171;52.534;13.436;2023-12-28T05:51:36;10.00;;;2.90;;
15293;SDS011;74171;52.534;13.436;2023-12-28T05:54:07;1.70;;;1.60;;
15293;SDS011;74171;52.534;13.436;2023-12-28T05:56:38;2.27;;;1.93;;
15293;SDS011;74171;52.534;13.436;2023-12-28T05:59:08;2.27;;;2.07;;
15293;SDS011;74171;52.534;13.436;2023-12-28T06:01:41;2.17;;;1.97;;
15293;SDS011;74171;52.534;13.436;2023-12-28T06:04:12;2.20;;;1.77;;
15293;SDS011;74171;52.534;13.436;2023-12-28T06:06:44;2.40;;;2.10;;
15293;SDS011;74171;52.534;13.436;2023-12-28T06:09:16;2.57;;;2.17;;
15293;SDS011;74171;52.534;13.436;2023-12-28T06:11:46;2.47;;;2.07;;
15293;SDS011;74171;52.534;13.436;2023-12-28T06:14:14;2.13;;;1.93;;
15293;SDS011;74171;52.534;13.436;2023-12-28T06:16:45;3.77;;;2.10;;
15293;SDS011;74171;52.534;13.436;2023-12-28T06:19:15;2.87;;;2.10;;
15293;SDS011;74171;52.534;13.436;2023-12-28T06:21:43;2.80;;;2.40;;
15293;SDS011;74171;52.534;13.436;2023-12-28T06:24:14;4.70;;;2.00;;
15293;SDS011;74171;52.534;13.436;2023-12-28T06:26:42;2.20;;;2.00;;
15293;SDS011;74171;52.534;13.436;2023-12-28T06:29:10;6.90;;;1.90;;
15293;SDS011;74171;52.534;13.436;2023-12-28T06:31:38;3.60;;;2.20;;
15293;SDS011;74171;52.534;13.436;2023-12-28T06:34:08;2.03;;;1.83;;
15293;SDS011;74171;52.534;13.436;2023-12-28T06:36:38;3.00;;;1.93;;
15293;SDS011;74171;52.534;13.436;2023-12-28T06:39:09;5.50;;;1.93;;
15293;SDS011;74171;52.534;13.436;2023-12-28T06:41:39;2.47;;;2.00;;
15293;SDS011;74171;52.534;13.436;2023-12-28T06:44:11;2.13;;;1.93;;
15293;SDS011;74171;52.534;13.436;2023-12-28T06:46:51;3.17;;;1.90;;
15293;SDS011;74171;52.534;13.436;2023-12-28T06:49:22;2.47;;;1.80;;
15293;SDS011;74171;52.534;13.436;2023-12-28T06:51:51;2.77;;;2.33;;
15293;SDS011;74171;52.534;13.436;2023-12-28T06:54:26;2.60;;;1.80;;
15293;SDS011;74171;52.534;13.436;2023-12-28T06:56:56;3.83;;;2.10;;
15293;SDS011;74171;52.534;13.436;2023-12-28T06:59:24;2.13;;;1.93;;
15293;SDS011;74171;52.534;13.436;2023-12-28T07:02:03;2.77;;;1.93;;
15293;SDS011;74171;52.534;13.436;2023-12-28T07:04:35;2.87;;;1.80;;
15293;SDS011;74171;52.534;13.436;2023-12-28T07:07:05;2.97;;;2.03;;
15293;SDS011;74171;52.534;13.436;2023-12-28T07:09:34;3.03;;;2.20;;
15293;SDS011;74171;52.534;13.436;2023-12-28T07:12:19;2.17;;;1.90;;
15293;SDS011;74171;52.534;13.436;2023-12-28T07:14:53;2.63;;;1.83;;
15293;SDS011;74171;52.534;13.436;2023-12-28T07:17:37;7.27;;;2.97;;
15293;SDS011;74171;52.534;13.436;2023-12-28T07:20:06;4.60;;;2.10;;
15293;SDS011;74171;52.534;13.436;2023-12-28T07:22:37;2.30;;;2.10;;
15293;SDS011;74171;52.534;13.436;2023-12-28T07:25:08;2.37;;;2.10;;
15293;SDS011;74171;52.534;13.436;2023-12-28T07:27:47;2.47;;;2.10;;
15293;SDS011;74171;52.534;13.436;2023-12-28T07:30:16;2.70;;;2.27;;
15293;SDS011;74171;52.534;13.436;2023-12-28T07:32:47;3.60;;;2.10;;
15293;SDS011;74171;52.534;13.436;2023-12-28T07:35:17;2.77;;;2.23;;
15293;SDS011;74171;52.534;13.436;2023-12-28T07:37:56;2.77;;;2.13;;
15293;SDS011;74171;52.534;13.436;2023-12-28T07:40:52;2.73;;;2.10;;
15293;SDS011;74171;52.534;13.436;2023-12-28T07:43:44;2.97;;;2.27;;
15293;SDS011;74171;52.534;13.436;2023-12-28T07:46:12;2.83;;;2.30;;
15293;SDS011;74171;52.534;13.436;2023-12-28T07:48:48;5.10;;;2.70;;
15293;SDS011;74171;52.534;13.436;2023-12-28T07:51:16;3.97;;;2.30;;
15293;SDS011;74171;52.534;13.436;2023-12-28T07:53:45;2.67;;;2.13;;
15293;SDS011;74171;52.534;13.436;2023-12-28T07:56:13;2.20;;;2.00;;
15293;SDS011;74171;52.534;13.436;2023-12-28T07:58:47;4.67;;;2.20;;
15293;SDS011;74171;52.534;13.436;2023-12-28T08:01:17;2.90;;;2.00;;
15293;SDS011;74171;52.534;13.436;2023-12-28T08:03:53;2.03;;;1.90;;
15293;SDS011;74171;52.534;13.436;2023-12-28T08:06:21;3.33;;;2.30;;
15293;SDS011;74171;52.534;13.436;2023-12-28T08:08:51;3.47;;;2.13;;
15293;SDS011;74171;52.534;13.436;2023-12-28T08:11:20;3.73;;;2.07;;
15293;SDS011;74171;52.534;13.436;2023-12-28T08:13:55;3.07;;;2.53;;
15293;SDS011;74171;52.534;13.436;2023-12-28T08:16:31;3.00;;;2.00;;
15293;SDS011;74171;52.534;13.436;2023-12-28T08:18:58;5.67;;;2.33;;
15293;SDS011;74171;52.534;13.436;2023-12-28T08:21:27;2.47;;;2.20;;
15293;SDS011;74171;52.534;13.436;2023-12-28T08:23:56;2.80;;;2.20;;
15293;SDS011;74171;52.534;13.436;2023-12-28T08:26:24;3.57;;;2.43;;
15293;SDS011;74171;52.534;13.436;2023-12-28T08:28:53;2.17;;;1.90;;
15293;SDS011;74171;52.534;13.436;2023-12-28T08:31:22;4.87;;;2.60;;
15293;SDS011;74171;52.534;13.436;2023-12-28T08:33:58;5.33;;;2.57;;
15293;SDS011;74171;52.534;13.436;2023-12-28T08:36:27;3.30;;;2.70;;
15293;SDS011;74171;52.534;13.436;2023-12-28T08:38:57;3.07;;;2.50;;
15293;SDS011;74171;52.534;13.436;2023-12-28T08:41:24;3.00;;;2.50;;
15293;SDS011;74171;52.534;13.436;2023-12-28T08:43:54;5.67;;;2.43;;
15293;SDS011;74171;52.534;13.436;2023-12-28T08:46:22;3.00;;;2.33;;
15293;SDS011;74171;52.534;13.436;2023-12-28T08:48:52;3.03;;;2.33;;
15293;SDS011;74171;52.534;13.436;2023-12-28T08:51:23;3.27;;;2.20;;
15293;SDS011;74171;52.534;13.436;2023-12-28T08:53:53;3.07;;;2.30;;
15293;SDS011;74171;52.534;13.436;2023-12-28T08:56:23;3.80;;;2.23;;
15293;SDS011;74171;52.534;13.436;2023-12-28T08:58:51;3.77;;;2.20;;
15293;SDS011;74171;52.534;13.436;2023-12-28T09:01:22;4.90;;;2.57;;
15293;SDS011;74171;52.534;13.436;2023-12-28T09:03:53;4.60;;;2.30;;
15293;SDS011;74171;52.534;13.436;2023-12-28T09:06:21;2.80;;;2.30;;
15293;SDS011;74171;52.534;13.436;2023-12-28T09:08:53;3.50;;;2.63;;
15293;SDS011;74171;52.534;13.436;2023-12-28T09:11:21;3.87;;;2.50;;
15293;SDS011;74171;52.534;13.436;2023-12-28T09:13:48;5.20;;;2.50;;
15293;SDS011;74171;52.534;13.436;2023-12-28T09:16:17;2.67;;;2.47;;
15293;SDS011;74171;52.534;13.436;2023-12-28T09:18:46;2.90;;;2.60;;
15293;SDS011;74171;52.534;13.436;2023-12-28T09:21:16;6.17;;;2.40;;
15293;SDS011;74171;52.534;13.436;2023-12-28T09:23:44;2.77;;;2.40;;
15293;SDS011;74171;52.534;13.436;2023-12-28T09:26:12;3.60;;;2.80;;
15293;SDS011;74171;52.534;13.436;2023-12-28T09:28:40;3.93;;;2.50;;
15293;SDS011;74171;52.534;13.436;2023-12-28T09:31:08;4.43;;;2.67;;
15293;SDS011;74171;52.534;13.436;2023-12-28T09:33:37;3.97;;;3.23;;
15293;SDS011;74171;52.534;13.436;2023-12-28T09:36:08;7.03;;;3.10;;
15293;SDS011;74171;52.534;13.436;2023-12-28T09:38:39;4.83;;;2.63;;
15293;SDS011;74171;52.534;13.436;2023-12-28T09:41:09;3.10;;;2.00;;
15293;SDS011;74171;52.534;13.436;2023-12-28T09:43:40;2.60;;;2.27;;
15293;SDS011;74171;52.534;13.436;2023-12-28T09:46:09;3.87;;;2.23;;
15293;SDS011;74171;52.534;13.436;2023-12-28T09:48:38;2.60;;;2.40;;
15293;SDS011;74171;52.534;13.436;2023-12-28T09:51:08;5.17;;;2.40;;
15293;SDS011;74171;52.534;13.436;2023-12-28T09:53:42;4.03;;;2.57;;
15293;SDS011;74171;52.534;13.436;2023-12-28T09:56:13;3.03;;;2.53;;
15293;SDS011;74171;52.534;13.436;2023-12-28T09:58:43;6.60;;;2.70;;
15293;SDS011;74171;52.534;13.436;2023-12-28T10:01:14;4.43;;;2.80;;
15293;SDS011;74171;52.534;13.436;2023-12-28T10:03:43;4.10;;;2.50;;
15293;SDS011;74171;52.534;13.436;2023-12-28T10:06:12;4.90;;;4.10;;
15293;SDS011;74171;52.534;13.436;2023-12-28T10:08:46;8.10;;;4.10;;
15293;SDS011;74171;52.534;13.436;2023-12-28T10:11:22;8.40;;;3.60;;
15293;SDS011;74171;52.534;13.436;2023-12-28T10:13:50;6.17;;;5.03;;
15293;SDS011;74171;52.534;13.436;2023-12-28T10:16:19;3.83;;;3.30;;
15293;SDS011;74171;52.534;13.436;2023-12-28T10:18:47;5.57;;;4.00;;
15293;SDS011;74171;52.534;13.436;2023-12-28T10:21:17;3.87;;;3.47;;
15293;SDS011;74171;52.534;13.436;2023-12-28T10:23:52;4.10;;;3.07;;
15293;SDS011;74171;52.534;13.436;2023-12-28T10:26:31;5.60;;;3.37;;
15293;SDS011;74171;52.534;13.436;2023-12-28T10:29:05;4.87;;;3.63;;
15293;SDS011;74171;52.534;13.436;2023-12-28T10:31:33;2.63;;;2.30;;
15293;SDS011;74171;52.534;13.436;2023-12-28T10:34:02;3.10;;;2.80;;
15293;SDS011;74171;52.534;13.436;2023-12-28T10:36:36;4.63;;;2.90;;
15293;SDS011;74171;52.534;13.436;2023-12-28T10:39:06;5.13;;;3.23;;
15293;SDS011;74171;52.534;13.436;2023-12-28T10:41:37;3.20;;;2.60;;
15293;SDS011;74171;52.534;13.436;2023-12-28T10:44:08;5.10;;;3.37;;
15293;SDS011;74171;52.534;13.436;2023-12-28T10:46:44;4.43;;;2.83;;
15293;SDS011;74171;52.534;13.436;2023-12-28T10:49:12;3.70;;;2.60;;
15293;SDS011;74171;52.534;13.436;2023-12-28T10:51:45;7.03;;;2.60;;
15293;SDS011;74171;52.534;13.436;2023-12-28T10:54:18;4.00;;;3.00;;
15293;SDS011;74171;52.534;13.436;2023-12-28T10:56:49;6.53;;;3.67;;
15293;SDS011;74171;52.534;13.436;2023-12-28T10:59:20;5.60;;;3.70;;
15293;SDS011;74171;52.534;13.436;2023-12-28T11:01:51;4.93;;;3.20;;
15293;SDS011;74171;52.534;13.436;2023-12-28T11:04:24;3.53;;;2.80;;
15293;SDS011;74171;52.534;13.436;2023-12-28T11:06:55;2.87;;;2.63;;
15293;SDS011;74171;52.534;13.436;2023-12-28T11:09:24;2.90;;;2.60;;
15293;SDS011;74171;52.534;13.436;2023-12-28T11:11:52;2.97;;;2.60;;
15293;SDS011;74171;52.534;13.436;2023-12-28T11:14:26;3.90;;;2.80;;
15293;SDS011;74171;52.534;13.436;2023-12-28T11:16:55;3.03;;;2.57;;
15293;SDS011;74171;52.534;13.436;2023-12-28T11:19:26;3.97;;;2.80;;
15293;SDS011;74171;52.534;13.436;2023-12-28T11:21:57;4.27;;;2.50;;
15293;SDS011;74171;52.534;13.436;2023-12-28T11:24:26;5.23;;;2.90;;
15293;SDS011;74171;52.534;13.436;2023-12-28T11:26:56;4.23;;;3.00;;
15293;SDS011;74171;52.534;13.436;2023-12-28T11:29:25;3.23;;;2.80;;
15293;SDS011;74171;52.534;13.436;2023-12-28T11:31:53;3.63;;;2.63;;
15293;SDS011;74171;52.534;13.436;2023-12-28T11:34:24;3.67;;;2.80;;
15293;SDS011;74171;52.534;13.436;2023-12-28T11:36:52;2.97;;;2.50;;
15293;SDS011;74171;52.534;13.436;2023-12-28T11:39:31;3.17;;;2.50;;
15293;SDS011;74171;52.534;13.436;2023-12-28T11:42:00;4.67;;;2.63;;
15293;SDS011;74171;52.534;13.436;2023-12-28T11:44:31;5.60;;;2.90;;
15293;SDS011;74171;52.534;13.436;2023-12-28T11:46:58;2.93;;;2.30;;
15293;SDS011;74171;52.534;13.436;2023-12-28T11:49:27;4.03;;;2.00;;
15293;SDS011;74171;52.534;13.436;2023-12-28T11:51:57;3.37;;;2.20;;
15293;SDS011;74171;52.534;13.436;2023-12-28T11:54:49;5.10;;;3.20;;
15293;SDS011;74171;52.534;13.436;2023-12-28T11:57:18;5.50;;;2.83;;
15293;SDS011;74171;52.534;13.436;2023-12-28T11:59:47;3.73;;;2.27;;
15293;SDS011;74171;52.534;13.436;2023-12-28T12:02:17;3.33;;;2.43;;
15293;SDS011;74171;52.534;13.436;2023-12-28T12:04:46;2.57;;;1.87;;
15293;SDS011;74171;52.534;13.436;2023-12-28T12:07:14;3.13;;;2.00;;
15293;SDS011;74171;52.534;13.436;2023-12-28T12:09:42;5.10;;;2.20;;
15293;SDS011;74171;52.534;13.436;2023-12-28T12:12:17;3.33;;;2.13;;
15293;SDS011;74171;52.534;13.436;2023-12-28T12:14:45;3.57;;;2.37;;
15293;SDS011;74171;52.534;13.436;2023-12-28T12:17:14;4.60;;;2.43;;
15293;SDS011;74171;52.534;13.436;2023-12-28T12:19:45;3.83;;;3.33;;
15293;SDS011;74171;52.534;13.436;2023-12-28T12:22:18;6.67;;;4.57;;
15293;SDS011;74171;52.534;13.436;2023-12-28T12:24:47;5.97;;;3.03;;
15293;SDS011;74171;52.534;13.436;2023-12-28T12:27:19;7.20;;;4.93;;
15293;SDS011;74171;52.534;13.436;2023-12-28T12:29:47;8.47;;;5.90;;
15293;SDS011;74171;52.534;13.436;2023-12-28T12:34:54;8.67;;;7.23;;
15293;SDS011;74171;52.534;13.436;2023-12-28T12:37:22;4.37;;;3.97;;
15293;SDS011;74171;52.534;13.436;2023-12-28T12:39:50;5.10;;;3.10;;
15293;SDS011;74171;52.534;13.436;2023-12-28T12:42:18;3.10;;;2.30;;
15293;SDS011;74171;52.534;13.436;2023-12-28T12:44:48;5.27;;;2.67;;
15293;SDS011;74171;52.534;13.436;2023-12-28T12:47:16;5.23;;;2.93;;
15293;SDS011;74171;52.534;13.436;2023-12-28T12:49:44;3.30;;;2.30;;
15293;SDS011;74171;52.534;13.436;2023-12-28T12:52:12;3.77;;;2.70;;
15293;SDS011;74171;52.534;13.436;2023-12-28T12:54:40;2.83;;;2.10;;
15293;SDS011;74171;52.534;13.436;2023-12-28T12:57:08;3.57;;;2.53;;
15293;SDS011;74171;52.534;13.436;2023-12-28T12:59:36;6.90;;;3.00;;
15293;SDS011;74171;52.534;13.436;2023-12-28T13:02:05;3.53;;;2.93;;
15293;SDS011;74171;52.534;13.436;2023-12-28T13:04:34;3.30;;;2.30;;
15293;SDS011;74171;52.534;13.436;2023-12-28T13:07:02;5.10;;;2.40;;
15293;SDS011;74171;52.534;13.436;2023-12-28T13:09:31;4.23;;;2.27;;
15293;SDS011;74171;52.534;13.436;2023-12-28T13:11:59;4.27;;;2.47;;
15293;SDS011;74171;52.534;13.436;2023-12-28T13:14:27;5.63;;;2.57;;
15293;SDS011;74171;52.534;13.436;2023-12-28T13:16:55;3.70;;;2.50;;
15293;SDS011;74171;52.534;13.436;2023-12-28T13:19:25;5.30;;;3.10;;
15293;SDS011;74171;52.534;13.436;2023-12-28T13:21:53;6.77;;;2.90;;
15293;SDS011;74171;52.534;13.436;2023-12-28T13:24:21;3.23;;;2.50;;
15293;SDS011;74171;52.534;13.436;2023-12-28T13:26:49;7.73;;;2.50;;
15293;SDS011;74171;52.534;13.436;2023-12-28T13:29:17;3.93;;;2.37;;
15293;SDS011;74171;52.534;13.436;2023-12-28T13:31:44;3.67;;;2.30;;
15293;SDS011;74171;52.534;13.436;2023-12-28T13:34:16;5.83;;;2.50;;
15293;SDS011;74171;52.534;13.436;2023-12-28T13:36:46;2.93;;;2.13;;
15293;SDS011;74171;52.534;13.436;2023-12-28T13:39:16;4.70;;;2.70;;
15293;SDS011;74171;52.534;13.436;2023-12-28T13:41:44;3.03;;;2.40;;
15293;SDS011;74171;52.534;13.436;2023-12-28T13:44:12;4.57;;;2.47;;
15293;SDS011;74171;52.534;13.436;2023-12-28T13:46:40;3.10;;;2.30;;
15293;SDS011;74171;52.534;13.436;2023-12-28T13:49:08;4.50;;;2.60;;
15293;SDS011;74171;52.534;13.436;2023-12-28T13:51:36;5.30;;;2.53;;
15293;SDS011;74171;52.534;13.436;2023-12-28T13:54:05;8.37;;;3.07;;
15293;SDS011;74171;52.534;13.436;2023-12-28T13:56:33;4.63;;;2.97;;
15293;SDS011;74171;52.534;13.436;2023-12-28T13:59:01;3.40;;;2.50;;
15293;SDS011;74171;52.534;13.436;2023-12-28T14:01:29;5.17;;;2.33;;
15293;SDS011;74171;52.534;13.436;2023-12-28T14:03:57;3.50;;;2.70;;
15293;SDS011;74171;52.534;13.436;2023-12-28T14:06:24;4.97;;;2.47;;
15293;SDS011;74171;52.534;13.436;2023-12-28T14:08:53;5.33;;;2.63;;
15293;SDS011;74171;52.534;13.436;2023-12-28T14:11:23;3.20;;;2.63;;
15293;SDS011;74171;52.534;13.436;2023-12-28T14:13:50;5.80;;;2.40;;
15293;SDS011;74171;52.534;13.436;2023-12-28T14:16:18;4.17;;;2.20;;
15293;SDS011;74171;52.534;13.436;2023-12-28T14:18:45;3.67;;;2.40;;
15293;SDS011;74171;52.534;13.436;2023-12-28T14:21:15;4.60;;;2.60;;
15293;SDS011;74171;52.534;13.436;2023-12-28T14:23:43;3.07;;;2.57;;
15293;SDS011;74171;52.534;13.436;2023-12-28T14:26:11;4.23;;;2.50;;
15293;SDS011;74171;52.534;13.436;2023-12-28T14:28:42;3.20;;;2.30;;
15293;SDS011;74171;52.534;13.436;2023-12-28T14:31:10;3.70;;;2.50;;
15293;SDS011;74171;52.534;13.436;2023-12-28T14:33:39;4.00;;;2.57;;
15293;SDS011;74171;52.534;13.436;2023-12-28T14:36:09;5.70;;;2.43;;
15293;SDS011;74171;52.534;13.436;2023-12-28T14:40:36;5.63;;;2.50;;
15293;SDS011;74171;52.534;13.436;2023-12-28T14:43:06;10.47;;;2.57;;
15293;SDS011;74171;52.534;13.436;2023-12-28T14:45:35;9.17;;;2.73;;
15293;SDS011;74171;52.534;13.436;2023-12-28T14:48:03;6.93;;;3.03;;
15293;SDS011;74171;52.534;13.436;2023-12-28T14:50:31;4.43;;;2.07;;
15293;SDS011;74171;52.534;13.436;2023-12-28T14:52:58;5.77;;;2.50;;
15293;SDS011;74171;52.534;13.436;2023-12-28T14:55:26;2.90;;;2.17;;